createdAt,value
2019-03-05T00:01:47.594Z,100.00
2019-03-05T00:04:16.283Z,100.00
2019-03-05T00:06:45.648Z,100.00
2019-03-05T00:12:17.278Z,100.00
2019-03-05T00:14:46.647Z,100.00
2019-03-05T00:17:15.990Z,100.00
2019-03-05T00:19:45.316Z,100.00
2019-03-05T00:22:14.651Z,100.00
2019-03-05T00:25:04.775Z,100.00
2019-03-05T00:28:12.839Z,100.00
2019-03-05T00:31:20.093Z,100.00
2019-03-05T00:34:19.756Z,100.00
2019-03-05T00:36:59.096Z,100.00
2019-03-05T00:40:07.201Z,100.00
2019-03-05T00:43:15.327Z,100.00
2019-03-05T00:46:23.375Z,100.00
2019-03-05T00:49:30.880Z,100.00
2019-03-05T00:52:38.998Z,100.00
2019-03-05T00:55:49.685Z,100.00
2019-03-05T00:58:40.216Z,100.00
2019-03-05T01:01:48.274Z,100.00
2019-03-05T01:04:55.715Z,100.00
2019-03-05T01:10:26.710Z,100.00
2019-03-05T01:15:58.682Z,100.00
2019-03-05T01:18:28.005Z,100.00
2019-03-05T01:20:57.329Z,100.00
2019-03-05T01:23:26.648Z,100.00
2019-03-05T01:25:55.984Z,100.00
2019-03-05T01:28:25.290Z,100.00
2019-03-05T01:31:14.143Z,100.00
2019-03-05T01:34:03.068Z,100.00
2019-03-05T01:36:34.975Z,100.00
2019-03-05T01:42:07.768Z,100.00
2019-03-05T01:44:37.092Z,100.00
2019-03-05T01:47:06.450Z,100.00
2019-03-05T01:49:35.784Z,100.00
2019-03-05T01:52:05.120Z,100.00
2019-03-05T01:54:34.440Z,100.00
2019-03-05T01:57:03.776Z,100.00
2019-03-05T01:59:45.763Z,100.00
2019-03-05T02:02:15.100Z,100.00
2019-03-05T02:04:44.414Z,100.00
2019-03-05T02:07:13.749Z,100.00
2019-03-05T02:09:43.084Z,100.00
2019-03-05T02:12:12.409Z,100.00
2019-03-05T02:14:41.738Z,100.00
2019-03-05T02:17:11.086Z,100.00
2019-03-05T02:19:49.320Z,100.00
2019-03-05T02:22:39.207Z,100.00
2019-03-05T02:25:47.246Z,100.00
2019-03-05T02:28:54.665Z,100.00
2019-03-05T02:31:47.077Z,100.00
2019-03-05T02:34:55.180Z,100.00
2019-03-05T02:37:56.949Z,100.00
2019-03-05T02:41:05.031Z,100.00
2019-03-05T02:44:12.433Z,100.00
2019-03-05T02:47:07.253Z,100.00
2019-03-05T02:50:15.375Z,100.00
2019-03-05T02:53:11.832Z,100.00
2019-03-05T02:56:05.864Z,100.00
2019-03-05T02:58:33.313Z,100.00
2019-03-05T03:01:22.101Z,100.00
2019-03-05T03:03:54.379Z,100.00
2019-03-05T03:06:28.496Z,100.00
2019-03-05T03:09:36.608Z,100.00
2019-03-05T03:12:05.927Z,100.00
2019-03-05T03:14:35.332Z,100.00
2019-03-05T03:17:04.686Z,100.00
2019-03-05T03:19:34.020Z,100.00
2019-03-05T03:22:03.347Z,100.00
2019-03-05T03:24:32.673Z,100.00
2019-03-05T03:27:01.995Z,100.00
2019-03-05T03:29:31.324Z,100.00
2019-03-05T03:32:00.659Z,100.00
2019-03-05T03:34:29.992Z,100.00
2019-03-05T03:36:59.331Z,100.00
2019-03-05T03:39:28.657Z,100.00
2019-03-05T03:41:58.087Z,100.00
2019-03-05T03:44:27.416Z,100.00
2019-03-05T03:46:56.762Z,100.00
2019-03-05T03:49:26.095Z,100.00
2019-03-05T03:51:55.475Z,100.00
2019-03-05T03:54:24.808Z,100.00
2019-03-05T03:56:54.142Z,100.00
2019-03-05T03:59:23.465Z,100.00
2019-03-05T04:01:52.805Z,100.00
2019-03-05T04:04:22.129Z,100.00
2019-03-05T04:06:51.563Z,100.00
2019-03-05T04:09:21.095Z,100.00
2019-03-05T04:11:50.448Z,100.00
2019-03-05T04:14:19.774Z,100.00
2019-03-05T04:16:49.099Z,100.00
2019-03-05T04:19:23.007Z,100.00
2019-03-05T04:21:51.721Z,100.00
2019-03-05T04:24:21.034Z,100.00
2019-03-05T04:26:50.365Z,100.00
2019-03-05T04:29:19.722Z,100.00
2019-03-05T04:31:49.064Z,100.00
2019-03-05T04:34:18.390Z,100.00
2019-03-05T04:36:47.713Z,100.00
2019-03-05T04:39:17.043Z,100.00
2019-03-05T04:41:46.391Z,100.00
2019-03-05T04:47:15.089Z,100.00
2019-03-05T04:50:03.890Z,100.00
2019-03-05T04:52:35.421Z,100.00
2019-03-05T04:55:06.027Z,100.00
2019-03-05T04:57:35.344Z,100.00
2019-03-05T05:03:08.468Z,100.00
2019-03-05T05:05:37.995Z,100.00
2019-03-05T05:08:07.331Z,100.00
2019-03-05T05:10:36.656Z,100.00
2019-03-05T05:13:05.995Z,100.00
2019-03-05T05:18:39.482Z,100.00
2019-03-05T05:21:08.808Z,100.00
2019-03-05T05:23:38.166Z,100.00
2019-03-05T05:26:07.493Z,100.00
2019-03-05T05:28:36.815Z,100.00
2019-03-05T05:31:06.296Z,100.00
2019-03-05T05:33:35.712Z,100.00
2019-03-05T05:36:05.040Z,100.00
2019-03-05T05:38:34.378Z,100.00
2019-03-05T05:41:03.809Z,100.00
2019-03-05T05:43:33.157Z,100.00
2019-03-05T05:46:02.583Z,100.00
2019-03-05T05:48:31.926Z,100.00
2019-03-05T05:51:01.281Z,100.00
2019-03-05T05:53:30.633Z,100.00
2019-03-05T05:56:00.024Z,100.00
2019-03-05T05:58:29.392Z,100.00
2019-03-05T06:03:55.744Z,100.00
2019-03-05T06:06:25.090Z,99.22
2019-03-05T06:08:54.416Z,99.92
2019-03-05T06:11:23.761Z,98.57
2019-03-05T06:13:53.175Z,98.25
2019-03-05T06:16:22.505Z,98.01
2019-03-05T06:18:51.847Z,98.20
2019-03-05T06:21:21.182Z,96.95
2019-03-05T06:23:50.521Z,96.20
2019-03-05T06:26:19.862Z,96.15
2019-03-05T06:28:49.203Z,95.50
2019-03-05T06:31:18.563Z,94.78
2019-03-05T06:33:47.920Z,95.56
2019-03-05T06:36:17.248Z,94.12
2019-03-05T06:38:46.602Z,94.12
2019-03-05T06:41:15.940Z,93.79
2019-03-05T06:43:45.266Z,93.74
2019-03-05T06:46:14.625Z,94.27
2019-03-05T06:48:43.957Z,93.74
2019-03-05T06:51:13.277Z,93.29
2019-03-05T06:53:42.614Z,92.82
2019-03-05T06:56:12.231Z,92.20
2019-03-05T06:58:40.967Z,92.16
2019-03-05T07:01:10.309Z,93.67
2019-03-05T07:03:39.667Z,92.45
2019-03-05T07:06:47.718Z,92.43
2019-03-05T07:09:55.133Z,91.88
2019-03-05T07:13:03.268Z,90.92
2019-03-05T07:16:11.326Z,93.59
2019-03-05T07:19:01.041Z,90.25
2019-03-05T07:22:10.295Z,89.95
2019-03-05T07:24:59.135Z,89.47
2019-03-05T07:27:48.875Z,88.59
2019-03-05T07:30:23.039Z,88.50
2019-03-05T07:32:53.171Z,87.49
2019-03-05T07:35:42.054Z,86.17
2019-03-05T07:38:11.402Z,86.29
2019-03-05T07:40:40.777Z,84.16
2019-03-05T07:43:10.119Z,82.08
2019-03-05T07:45:39.443Z,82.22
2019-03-05T07:48:08.795Z,81.80
2019-03-05T07:50:38.157Z,80.01
2019-03-05T07:53:07.523Z,78.71
2019-03-05T07:55:36.854Z,78.10
2019-03-05T07:58:06.281Z,77.42
2019-03-05T08:06:20.776Z,78.45
2019-03-05T08:09:28.848Z,76.17
2019-03-05T08:12:19.298Z,76.66
2019-03-05T08:15:10.340Z,77.27
2019-03-05T08:17:39.670Z,77.79
2019-03-05T08:20:09.763Z,78.24
2019-03-05T08:25:23.273Z,78.62
2019-03-05T08:27:52.614Z,78.58
2019-03-05T08:30:22.025Z,78.69
2019-03-05T08:35:44.465Z,79.08
2019-03-05T08:38:13.147Z,78.47
2019-03-05T08:40:41.945Z,77.74
2019-03-05T08:43:10.560Z,77.82
2019-03-05T08:45:39.217Z,78.42
2019-03-05T08:48:07.859Z,77.37
2019-03-05T08:50:36.586Z,75.93
2019-03-05T08:53:05.123Z,76.60
2019-03-05T08:58:28.345Z,76.01
2019-03-05T09:00:57.689Z,75.58
2019-03-05T09:03:27.240Z,74.08
2019-03-05T09:05:56.626Z,73.59
2019-03-05T09:08:26.083Z,73.14
2019-03-05T09:10:55.633Z,73.52
2019-03-05T09:13:32.651Z,72.80
2019-03-05T09:16:14.378Z,72.48
2019-03-05T09:18:43.692Z,72.47
2019-03-05T09:21:13.018Z,71.91
2019-03-05T09:23:42.377Z,72.12
2019-03-05T09:26:11.728Z,71.06
2019-03-05T09:28:41.100Z,70.80
2019-03-05T09:31:10.490Z,69.99
2019-03-05T09:33:39.814Z,70.23
2019-03-05T09:36:09.228Z,70.11
2019-03-05T09:38:38.577Z,69.80
2019-03-05T09:44:09.799Z,66.48
2019-03-05T09:46:38.367Z,66.42
2019-03-05T09:49:07.771Z,66.86
2019-03-05T09:51:37.244Z,65.46
2019-03-05T09:54:06.861Z,64.86
2019-03-05T09:56:36.283Z,64.56
2019-03-05T09:59:05.222Z,64.69
2019-03-05T10:01:34.692Z,63.93
2019-03-05T10:04:04.400Z,63.39
2019-03-05T10:06:33.021Z,62.97
2019-03-05T10:11:45.289Z,62.56
2019-03-05T10:14:14.638Z,61.49
2019-03-05T10:16:43.289Z,62.48
2019-03-05T10:19:12.629Z,62.04
2019-03-05T10:21:53.760Z,61.46
2019-03-05T10:24:22.473Z,62.39
2019-03-05T10:26:52.022Z,62.64
2019-03-05T10:29:21.359Z,61.16
2019-03-05T10:31:50.722Z,59.82
2019-03-05T10:34:20.159Z,59.50
2019-03-05T10:36:49.519Z,59.01
2019-03-05T10:39:38.228Z,58.75
2019-03-05T10:42:07.817Z,58.13
2019-03-05T10:44:37.289Z,56.89
2019-03-05T10:47:06.674Z,56.72
2019-03-05T10:49:36.377Z,55.98
2019-03-05T10:52:05.711Z,55.40
2019-03-05T10:54:35.031Z,55.24
2019-03-05T10:57:04.664Z,54.97
2019-03-05T10:59:34.092Z,54.73
2019-03-05T11:02:03.698Z,54.28
2019-03-05T11:04:32.355Z,54.84
2019-03-05T11:07:01.702Z,53.30
2019-03-05T11:09:31.046Z,52.65
2019-03-05T11:11:59.800Z,53.17
2019-03-05T11:14:29.152Z,54.60
2019-03-05T11:16:58.544Z,53.85
2019-03-05T11:19:27.978Z,53.41
2019-03-05T11:21:57.302Z,53.86
2019-03-05T11:24:26.627Z,54.35
2019-03-05T11:26:55.947Z,53.74
2019-03-05T11:29:25.313Z,54.52
2019-03-05T11:31:54.880Z,53.01
2019-03-05T11:34:24.310Z,51.66
2019-03-05T11:36:53.646Z,53.05
2019-03-05T11:39:23.225Z,52.10
2019-03-05T11:41:51.934Z,52.04
2019-03-05T11:44:21.361Z,52.02
2019-03-05T11:46:50.732Z,52.06
2019-03-05T11:49:20.123Z,51.31
2019-03-05T11:51:49.484Z,52.54
2019-03-05T11:54:18.854Z,50.60
2019-03-05T11:56:48.215Z,50.82
2019-03-05T11:59:17.562Z,50.56
2019-03-05T12:01:49.322Z,49.45
2019-03-05T12:04:17.950Z,49.19
2019-03-05T12:06:47.306Z,48.64
2019-03-05T12:12:18.969Z,50.88
2019-03-05T12:14:48.421Z,50.10
2019-03-05T12:17:17.792Z,50.88
2019-03-05T12:19:47.119Z,50.82
2019-03-05T12:22:16.515Z,50.84
2019-03-05T12:24:45.862Z,50.28
2019-03-05T12:27:15.230Z,50.41
2019-03-05T12:29:44.576Z,50.42
2019-03-05T12:32:15.409Z,50.49
2019-03-05T12:35:03.720Z,51.23
2019-03-05T12:37:33.169Z,51.60
2019-03-05T12:40:02.654Z,52.00
2019-03-05T12:42:32.004Z,51.99
2019-03-05T12:45:01.341Z,53.59
2019-03-05T12:47:30.715Z,51.19
2019-03-05T12:49:59.245Z,52.97
2019-03-05T12:52:28.720Z,52.61
2019-03-05T12:54:58.049Z,52.31
2019-03-05T12:57:27.393Z,52.12
2019-03-05T12:59:56.728Z,51.63
2019-03-05T13:02:26.086Z,51.80
2019-03-05T13:04:55.442Z,52.39
2019-03-05T13:10:08.773Z,52.41
2019-03-05T13:12:40.046Z,51.43
2019-03-05T13:15:28.346Z,51.58
2019-03-05T13:17:57.687Z,53.21
2019-03-05T13:20:27.791Z,51.41
2019-03-05T13:23:16.338Z,51.62
2019-03-05T13:25:45.696Z,51.63
2019-03-05T13:28:15.045Z,52.23
2019-03-05T13:31:06.293Z,51.54
2019-03-05T13:33:54.873Z,51.72
2019-03-05T13:36:24.387Z,52.44
2019-03-05T13:38:53.715Z,53.41
2019-03-05T13:41:23.170Z,53.37
2019-03-05T13:43:55.452Z,54.66
2019-03-05T13:46:41.792Z,60.70
2019-03-05T13:49:56.487Z,54.21
2019-03-05T13:53:22.575Z,54.88
2019-03-05T13:56:27.270Z,54.60
2019-03-05T13:59:29.410Z,54.53
2019-03-05T14:01:58.075Z,56.01
2019-03-05T14:04:49.180Z,55.92
2019-03-05T14:07:58.174Z,56.55
2019-03-05T14:10:27.743Z,57.76
2019-03-05T14:12:57.071Z,57.79
2019-03-05T14:15:26.548Z,57.53
2019-03-05T14:17:55.914Z,57.55
2019-03-05T14:20:31.705Z,58.40
2019-03-05T14:23:14.881Z,58.65
2019-03-05T14:25:44.300Z,59.19
2019-03-05T14:28:13.672Z,59.96
2019-03-05T14:33:25.659Z,60.27
2019-03-05T14:35:54.990Z,60.72
2019-03-05T14:38:24.416Z,61.25
2019-03-05T14:41:05.782Z,62.47
2019-03-05T14:49:20.541Z,61.72
2019-03-05T14:51:49.968Z,61.31
2019-03-05T14:54:21.579Z,62.26
2019-03-05T14:56:50.812Z,62.28
2019-03-05T14:59:20.194Z,61.83
2019-03-05T15:01:49.111Z,62.49
2019-03-05T15:04:18.054Z,62.03
2019-03-05T15:06:46.640Z,62.21
2019-03-05T15:09:16.032Z,63.12
2019-03-05T15:11:45.347Z,62.86
2019-03-05T15:14:14.754Z,63.83
2019-03-05T15:16:44.141Z,63.28
2019-03-05T15:19:21.444Z,63.12
2019-03-05T15:22:02.710Z,63.63
2019-03-05T15:24:32.102Z,64.08
2019-03-05T15:27:01.542Z,64.46
2019-03-05T15:29:31.740Z,65.15
2019-03-05T15:32:01.753Z,65.05
2019-03-05T15:34:31.334Z,66.97
2019-03-05T15:37:00.180Z,65.61
2019-03-05T15:39:29.507Z,66.29
2019-03-05T15:41:58.990Z,66.62
2019-03-05T15:44:28.380Z,66.85
2019-03-05T15:46:57.742Z,67.24
2019-03-05T15:49:27.075Z,66.99
2019-03-05T15:51:56.369Z,66.81
2019-03-05T15:54:25.688Z,66.55
2019-03-05T15:56:55.016Z,68.02
2019-03-05T15:59:24.462Z,68.04
2019-03-05T16:01:53.310Z,68.39
2019-03-05T16:04:22.701Z,66.70
2019-03-05T16:06:51.968Z,68.49
2019-03-05T16:09:21.305Z,68.72
2019-03-05T16:11:50.658Z,67.54
2019-03-05T16:14:20.035Z,67.61
2019-03-05T16:16:51.797Z,67.88
2019-03-05T16:19:38.664Z,67.17
2019-03-05T16:22:08.076Z,68.12
2019-03-05T16:24:37.795Z,66.96
2019-03-05T16:27:29.984Z,67.54
2019-03-05T16:30:37.627Z,68.47
2019-03-05T16:33:26.448Z,67.80
2019-03-05T16:36:09.695Z,68.74
2019-03-05T16:38:51.210Z,72.85
2019-03-05T16:41:59.122Z,69.88
2019-03-05T16:44:36.003Z,71.21
2019-03-05T16:47:43.751Z,70.26
2019-03-05T16:50:23.842Z,72.38
2019-03-05T16:53:12.831Z,72.47
2019-03-05T16:56:01.231Z,72.27
2019-03-05T16:58:50.253Z,74.00
2019-03-05T17:01:39.067Z,71.79
2019-03-05T17:04:27.880Z,72.27
2019-03-05T17:07:16.720Z,72.16
2019-03-05T17:10:03.251Z,74.53
2019-03-05T17:12:32.713Z,72.59
2019-03-05T17:15:02.069Z,73.50
2019-03-05T17:17:31.586Z,73.98
2019-03-05T17:20:00.928Z,75.03
2019-03-05T17:22:30.274Z,72.04
2019-03-05T17:24:59.626Z,74.53
2019-03-05T17:27:28.970Z,70.94
2019-03-05T17:29:58.355Z,72.37
2019-03-05T17:32:27.659Z,71.46
2019-03-05T17:34:57.037Z,73.38
2019-03-05T17:37:26.071Z,73.68
2019-03-05T17:39:55.437Z,72.32
2019-03-05T17:42:24.792Z,72.39
2019-03-05T17:44:54.150Z,68.75
2019-03-05T17:47:23.542Z,70.75
2019-03-05T17:49:52.876Z,70.99
2019-03-05T17:52:42.117Z,71.60
2019-03-05T17:58:15.407Z,72.18
2019-03-05T18:03:40.226Z,71.69
2019-03-05T18:06:09.589Z,72.42
2019-03-05T18:08:38.894Z,73.03
2019-03-05T18:11:08.347Z,73.05
2019-03-05T18:13:37.716Z,74.34
2019-03-05T18:16:07.062Z,76.64
2019-03-05T18:18:36.432Z,77.79
2019-03-05T18:21:05.886Z,75.39
2019-03-05T18:23:35.249Z,75.53
2019-03-05T18:26:04.599Z,75.35
2019-03-05T18:28:33.918Z,73.49
2019-03-05T18:31:03.491Z,74.72
2019-03-05T18:33:32.868Z,74.57
2019-03-05T18:36:02.329Z,74.54
2019-03-05T18:38:31.650Z,74.22
2019-03-05T18:41:00.959Z,75.91
2019-03-05T18:43:30.277Z,75.59
2019-03-05T18:45:59.667Z,75.08
2019-03-05T18:48:29.000Z,75.01
2019-03-05T18:50:58.647Z,76.57
2019-03-05T18:53:28.064Z,75.49
2019-03-05T18:55:57.450Z,76.13
2019-03-05T18:58:26.835Z,75.98
2019-03-05T19:00:56.289Z,75.94
2019-03-05T19:03:38.501Z,76.01
2019-03-05T19:06:07.346Z,77.70
2019-03-05T19:08:36.930Z,77.39
2019-03-05T19:11:06.560Z,77.47
2019-03-05T19:13:36.008Z,77.30
2019-03-05T19:19:01.003Z,80.87
2019-03-05T19:21:30.382Z,78.52
2019-03-05T19:23:59.746Z,77.98
2019-03-05T19:26:29.062Z,79.00
2019-03-05T19:28:58.448Z,77.96
2019-03-05T19:31:27.800Z,80.04
2019-03-05T19:33:57.175Z,78.95
2019-03-05T19:39:30.801Z,78.38
2019-03-05T19:42:00.312Z,80.21
2019-03-05T19:44:29.682Z,79.70
2019-03-05T19:46:59.045Z,79.97
2019-03-05T19:49:28.509Z,79.45
2019-03-05T19:51:57.828Z,81.70
2019-03-05T19:54:27.218Z,80.53
2019-03-05T19:56:56.536Z,81.38
2019-03-05T19:59:25.893Z,80.16
2019-03-05T20:01:55.272Z,81.52
2019-03-05T20:04:24.645Z,81.17
2019-03-05T20:06:54.083Z,80.61
2019-03-05T20:09:23.559Z,81.06
2019-03-05T20:11:52.994Z,80.55
2019-03-05T20:14:22.579Z,81.35
2019-03-05T20:16:51.894Z,81.48
2019-03-05T20:19:21.226Z,81.02
2019-03-05T20:21:50.576Z,81.00
2019-03-05T20:24:19.966Z,81.51
2019-03-05T20:26:49.399Z,81.93
2019-03-05T20:29:18.809Z,82.36
2019-03-05T20:31:48.153Z,81.69
2019-03-05T20:34:17.516Z,81.48
2019-03-05T20:36:46.847Z,83.35
2019-03-05T20:39:16.206Z,82.44
2019-03-05T20:41:45.541Z,84.49
2019-03-05T20:44:14.906Z,82.45
2019-03-05T20:46:44.273Z,82.67
2019-03-05T20:49:13.631Z,82.57
2019-03-05T20:51:43.144Z,83.62
2019-03-05T20:54:12.499Z,83.84
2019-03-05T20:56:41.856Z,83.44
2019-03-05T20:59:11.201Z,83.79
2019-03-05T21:01:40.557Z,84.10
2019-03-05T21:04:10.029Z,84.71
2019-03-05T21:06:39.394Z,83.90
2019-03-05T21:09:28.695Z,82.89
2019-03-05T21:11:58.042Z,83.14
2019-03-05T21:14:27.386Z,82.61
2019-03-05T21:16:56.741Z,83.97
2019-03-05T21:19:26.082Z,84.39
2019-03-05T21:21:55.417Z,84.33
2019-03-05T21:24:24.953Z,83.15
2019-03-05T21:26:54.331Z,83.99
2019-03-05T21:29:23.682Z,84.25
2019-03-05T21:31:53.042Z,82.52
2019-03-05T21:34:22.385Z,83.72
2019-03-05T21:36:51.748Z,83.04
2019-03-05T21:39:21.103Z,82.87
2019-03-05T21:41:50.558Z,82.34
2019-03-05T21:44:19.933Z,84.50
2019-03-05T21:46:49.300Z,84.72
2019-03-05T21:49:18.625Z,84.12
2019-03-05T21:51:47.995Z,83.76
2019-03-05T21:54:17.445Z,86.03
2019-03-05T21:56:46.782Z,83.44
2019-03-05T21:59:16.144Z,82.89
2019-03-05T22:01:45.470Z,84.96
2019-03-05T22:04:14.803Z,85.44
2019-03-05T22:06:44.178Z,83.91
2019-03-05T22:09:13.555Z,84.95
2019-03-05T22:11:43.131Z,84.51
2019-03-05T22:14:12.523Z,85.96
2019-03-05T22:16:41.867Z,83.41
2019-03-05T22:19:11.419Z,85.37
2019-03-05T22:21:40.752Z,83.09
2019-03-05T22:24:10.260Z,84.07
2019-03-05T22:26:39.593Z,84.43
2019-03-05T22:29:08.233Z,83.18
2019-03-05T22:31:37.563Z,83.77
2019-03-05T22:34:06.905Z,83.83
2019-03-05T22:36:36.243Z,82.73
2019-03-05T22:42:08.475Z,83.46
2019-03-05T22:44:37.838Z,82.60
2019-03-05T22:47:07.189Z,82.92
2019-03-05T22:49:36.539Z,84.71
2019-03-05T22:52:05.980Z,83.90
2019-03-05T22:54:55.226Z,82.12
2019-03-05T22:57:24.537Z,81.82
2019-03-05T22:59:53.902Z,84.39
2019-03-05T23:02:23.546Z,84.42
2019-03-05T23:07:55.167Z,82.09
2019-03-05T23:10:24.733Z,84.00
2019-03-05T23:12:54.164Z,82.17
2019-03-05T23:15:23.842Z,83.09
2019-03-05T23:17:53.283Z,82.64
2019-03-05T23:20:22.617Z,83.88
2019-03-05T23:22:51.957Z,82.63
2019-03-05T23:28:16.869Z,82.81
2019-03-05T23:30:46.414Z,82.40
2019-03-05T23:33:15.969Z,82.23
2019-03-05T23:35:45.301Z,82.97
2019-03-05T23:38:14.661Z,83.61
2019-03-05T23:40:55.736Z,82.37
2019-03-05T23:43:24.255Z,82.47
2019-03-05T23:45:53.599Z,85.22
2019-03-05T23:48:22.942Z,85.33
2019-03-05T23:50:52.283Z,88.07
2019-03-05T23:53:21.591Z,87.79
2019-03-05T23:55:50.957Z,86.45
2019-03-05T23:58:20.311Z,86.81
